createdAt,value
2019-06-10T00:00:16.463Z,1
2019-06-10T00:01:08.624Z,3
2019-06-10T00:02:05.821Z,3
2019-06-10T00:03:06.003Z,3
2019-06-10T00:04:12.122Z,3
2019-06-10T00:05:05.976Z,3
2019-06-10T00:06:05.672Z,3
2019-06-10T00:07:05.513Z,3
2019-06-10T00:08:05.768Z,3
2019-06-10T00:09:08.086Z,3
2019-06-10T00:10:06.196Z,3
2019-06-10T00:11:07.774Z,3
2019-06-10T00:12:06.412Z,1
2019-06-10T00:13:05.380Z,5
2019-06-10T00:14:06.066Z,5
2019-06-10T00:15:06.119Z,5
2019-06-10T00:16:06.407Z,5
2019-06-10T00:17:06.345Z,5
2019-06-10T00:18:41.128Z,1
2019-06-10T00:19:09.401Z,5
2019-06-10T00:20:07.015Z,5
2019-06-10T00:21:05.524Z,5
2019-06-10T00:22:06.493Z,5
2019-06-10T00:23:05.684Z,5
2019-06-10T00:24:05.800Z,2
2019-06-10T00:25:07.042Z,3
2019-06-10T00:26:09.020Z,3
2019-06-10T00:27:05.603Z,3
2019-06-10T00:28:05.749Z,3
2019-06-10T00:29:06.329Z,3
2019-06-10T00:30:07.562Z,3
2019-06-10T00:31:05.446Z,3
2019-06-10T00:32:08.530Z,3
2019-06-10T00:33:06.498Z,3
2019-06-10T00:34:06.622Z,3
2019-06-10T00:35:07.368Z,3
2019-06-10T00:36:09.625Z,2
2019-06-10T00:37:09.201Z,2
2019-06-10T00:38:09.055Z,2
2019-06-10T00:39:06.549Z,2
2019-06-10T00:40:07.664Z,2
2019-06-10T00:41:07.674Z,2
2019-06-10T00:42:09.320Z,2
2019-06-10T00:43:05.428Z,5
2019-06-10T00:44:05.655Z,5
2019-06-10T00:45:07.570Z,5
2019-06-10T00:46:07.392Z,5
2019-06-10T00:47:07.963Z,5
2019-06-10T00:48:26.274Z,2
2019-06-10T00:49:08.124Z,3
2019-06-10T00:50:10.303Z,3
2019-06-10T00:51:06.078Z,3
2019-06-10T00:52:05.902Z,3
2019-06-10T00:53:05.971Z,3
2019-06-10T00:54:06.969Z,1
2019-06-10T00:55:06.484Z,3
2019-06-10T00:56:06.692Z,3
2019-06-10T00:57:05.507Z,3
2019-06-10T00:58:05.696Z,3
2019-06-10T00:59:05.743Z,3
2019-06-10T01:00:25.827Z,1
2019-06-10T01:01:04.314Z,3
2019-06-10T01:02:06.348Z,3
2019-06-10T01:03:03.917Z,3
2019-06-10T01:04:06.542Z,3
2019-06-10T01:05:03.365Z,3
2019-06-10T01:06:04.722Z,2
2019-06-10T01:07:02.797Z,3
2019-06-10T01:08:04.514Z,3
2019-06-10T01:09:02.887Z,3
2019-06-10T01:10:03.131Z,3
2019-06-10T01:11:19.740Z,3
2019-06-10T01:12:03.130Z,1
2019-06-10T01:13:04.985Z,3
2019-06-10T01:14:03.348Z,3
2019-06-10T01:15:03.530Z,3
2019-06-10T01:16:03.777Z,3
2019-06-10T01:17:01.694Z,3
2019-06-10T01:18:02.058Z,2
2019-06-10T01:19:02.139Z,5
2019-06-10T01:20:03.662Z,5
2019-06-10T01:21:02.354Z,5
2019-06-10T01:22:01.939Z,5
2019-06-10T01:23:02.082Z,5
2019-06-10T01:24:02.323Z,1
2019-06-10T01:25:02.655Z,5
2019-06-10T01:26:01.978Z,5
2019-06-10T01:27:01.930Z,5
2019-06-10T01:28:02.273Z,5
2019-06-10T01:29:02.381Z,5
2019-06-10T01:30:18.706Z,1
2019-06-10T01:31:01.960Z,3
2019-06-10T01:32:02.201Z,3
2019-06-10T01:33:02.446Z,3
2019-06-10T01:34:02.605Z,3
2019-06-10T01:35:01.906Z,3
2019-06-10T01:36:02.258Z,1
2019-06-10T01:37:02.391Z,2
2019-06-10T01:38:01.700Z,2
2019-06-10T01:39:01.920Z,2
2019-06-10T01:40:02.209Z,2
2019-06-10T01:41:02.446Z,2
2019-06-10T01:42:02.677Z,1
2019-06-10T01:43:01.827Z,5
2019-06-10T01:44:02.101Z,5
2019-06-10T01:45:02.304Z,5
2019-06-10T01:46:02.508Z,5
2019-06-10T01:47:01.750Z,5
2019-06-10T01:48:02.003Z,2
2019-06-10T01:49:02.170Z,3
2019-06-10T01:50:02.404Z,3
2019-06-10T01:51:02.330Z,3
2019-06-10T01:52:02.088Z,3
2019-06-10T01:53:02.019Z,3
2019-06-10T01:54:02.282Z,2
2019-06-10T01:55:02.581Z,3
2019-06-10T01:56:01.758Z,3
2019-06-10T01:57:01.953Z,3
2019-06-10T01:58:02.214Z,3
2019-06-10T01:59:02.362Z,3
2019-06-10T02:00:19.122Z,2
2019-06-10T02:01:01.967Z,3
2019-06-10T02:02:02.195Z,3
2019-06-10T02:03:04.039Z,3
2019-06-10T02:04:01.657Z,3
2019-06-10T02:05:02.201Z,3
2019-06-10T02:06:02.130Z,2
2019-06-10T02:07:02.358Z,3
2019-06-10T02:08:02.656Z,3
2019-06-10T02:09:01.762Z,3
2019-06-10T02:10:02.135Z,3
2019-06-10T02:11:02.320Z,3
2019-06-10T02:12:02.653Z,2
2019-06-10T02:13:01.719Z,3
2019-06-10T02:14:01.949Z,3
2019-06-10T02:15:02.261Z,3
2019-06-10T02:16:02.720Z,3
2019-06-10T02:17:01.704Z,3
2019-06-10T02:18:01.924Z,2
2019-06-10T02:19:04.713Z,3
2019-06-10T02:20:02.480Z,3
2019-06-10T02:21:01.951Z,3
2019-06-10T02:22:01.882Z,3
2019-06-10T02:23:02.323Z,3
2019-06-10T02:24:02.261Z,2
2019-06-10T02:25:02.503Z,5
2019-06-10T02:26:02.412Z,5
2019-06-10T02:27:01.952Z,5
2019-06-10T02:28:02.163Z,5
2019-06-10T02:29:02.364Z,5
2019-06-10T02:30:22.891Z,2
2019-06-10T02:31:04.129Z,2
2019-06-10T02:32:05.533Z,2
2019-06-10T02:33:02.984Z,2
2019-06-10T02:34:03.139Z,2
2019-06-10T02:35:22.974Z,2
2019-06-10T02:36:05.131Z,2
2019-06-10T02:37:05.337Z,3
2019-06-10T02:38:03.970Z,3
2019-06-10T02:39:05.137Z,3
2019-06-10T02:40:05.046Z,3
2019-06-10T02:41:05.103Z,3
2019-06-10T02:42:05.130Z,1
2019-06-10T02:43:03.940Z,2
2019-06-10T02:44:04.889Z,2
2019-06-10T02:45:04.394Z,2
2019-06-10T02:46:05.291Z,2
2019-06-10T02:47:03.857Z,2
2019-06-10T02:48:04.715Z,3
2019-06-10T02:50:09.350Z,2
2019-06-10T02:51:04.568Z,2
2019-06-10T02:52:03.945Z,2
2019-06-10T02:53:04.427Z,2
2019-06-10T02:54:05.376Z,1
2019-06-10T02:55:04.833Z,2
2019-06-10T02:56:04.689Z,2
2019-06-10T02:57:04.913Z,2
2019-06-10T02:58:04.403Z,2
2019-06-10T02:59:03.868Z,2
2019-06-10T03:00:23.394Z,1
2019-06-10T03:01:04.845Z,3
2019-06-10T03:02:03.472Z,3
2019-06-10T03:03:04.302Z,3
2019-06-10T03:04:05.099Z,3
2019-06-10T03:05:05.187Z,3
2019-06-10T03:06:09.189Z,1
2019-06-10T03:07:03.772Z,5
2019-06-10T03:08:04.389Z,5
2019-06-10T03:09:04.218Z,5
2019-06-10T03:10:05.224Z,5
2019-06-10T03:11:04.327Z,5
2019-06-10T03:12:05.293Z,2
2019-06-10T03:13:02.852Z,3
2019-06-10T03:14:03.018Z,3
2019-06-10T03:15:02.584Z,3
2019-06-10T03:16:03.156Z,3
2019-06-10T03:17:03.508Z,3
2019-06-10T03:18:02.717Z,1
2019-06-10T03:19:03.389Z,5
2019-06-10T03:20:02.686Z,5
2019-06-10T03:21:03.062Z,5
2019-06-10T03:22:03.110Z,5
2019-06-10T03:23:03.370Z,5
2019-06-10T03:24:03.131Z,2
2019-06-10T03:25:03.266Z,3
2019-06-10T03:26:04.692Z,3
2019-06-10T03:27:03.084Z,3
2019-06-10T03:28:03.424Z,3
2019-06-10T03:29:03.158Z,3
2019-06-10T03:30:20.126Z,2
2019-06-10T03:31:06.628Z,3
2019-06-10T03:32:05.945Z,3
2019-06-10T03:33:05.551Z,3
2019-06-10T03:34:05.801Z,3
2019-06-10T03:35:06.045Z,3
2019-06-10T03:36:03.794Z,1
2019-06-10T03:37:02.832Z,3
2019-06-10T03:38:03.393Z,3
2019-06-10T03:39:02.985Z,3
2019-06-10T03:40:02.873Z,3
2019-06-10T03:41:03.717Z,3
2019-06-10T03:42:02.730Z,1
2019-06-10T03:43:02.954Z,3
2019-06-10T03:44:03.017Z,3
2019-06-10T03:45:03.748Z,3
2019-06-10T03:46:03.674Z,3
2019-06-10T03:47:03.205Z,3
2019-06-10T03:48:04.118Z,2
2019-06-10T03:49:03.553Z,2
2019-06-10T03:50:03.716Z,2
2019-06-10T03:51:03.843Z,2
2019-06-10T03:52:02.829Z,2
2019-06-10T03:53:04.791Z,2
2019-06-10T03:54:02.888Z,1
2019-06-10T03:55:03.530Z,3
2019-06-10T03:56:02.834Z,3
2019-06-10T03:57:03.261Z,3
2019-06-10T03:58:02.626Z,3
2019-06-10T03:59:03.335Z,3
2019-06-10T04:00:14.271Z,2
2019-06-10T04:01:03.680Z,2
2019-06-10T04:02:02.711Z,2
2019-06-10T04:03:03.134Z,2
2019-06-10T04:04:02.826Z,2
2019-06-10T04:05:03.187Z,2
2019-06-10T04:06:03.054Z,1
2019-06-10T04:07:04.352Z,3
2019-06-10T04:08:02.527Z,3
2019-06-10T04:09:03.286Z,3
2019-06-10T04:10:02.674Z,3
2019-06-10T04:11:03.406Z,3
2019-06-10T04:12:02.631Z,2
2019-06-10T04:13:02.999Z,3
2019-06-10T04:14:02.800Z,3
2019-06-10T04:15:03.510Z,3
2019-06-10T04:16:03.043Z,3
2019-06-10T04:17:03.092Z,3
2019-06-10T04:18:04.359Z,2
2019-06-10T04:19:03.033Z,2
2019-06-10T04:20:15.463Z,2
2019-06-10T04:21:02.854Z,2
2019-06-10T04:22:03.015Z,2
2019-06-10T04:23:03.113Z,2
2019-06-10T04:24:02.753Z,4
2019-06-10T04:25:03.484Z,2
2019-06-10T04:26:02.841Z,2
2019-06-10T04:27:03.174Z,2
2019-06-10T04:28:03.636Z,2
2019-06-10T04:29:02.953Z,2
2019-06-10T04:30:03.774Z,2
2019-06-10T04:31:03.116Z,3
2019-06-10T04:32:03.532Z,3
2019-06-10T04:33:02.685Z,3
2019-06-10T04:34:03.658Z,3
2019-06-10T04:35:02.759Z,3
2019-06-10T04:36:03.453Z,1
2019-06-10T04:37:03.471Z,2
2019-06-10T04:38:02.897Z,2
2019-06-10T04:39:03.661Z,2
2019-06-10T04:40:06.565Z,2
2019-06-10T04:41:03.908Z,2
2019-06-10T04:42:02.758Z,2
2019-06-10T04:43:03.346Z,3
2019-06-10T04:44:03.142Z,3
2019-06-10T04:45:03.595Z,3
2019-06-10T04:46:02.939Z,3
2019-06-10T04:47:03.183Z,3
2019-06-10T04:48:03.426Z,5
2019-06-10T04:49:03.246Z,2
2019-06-10T04:50:03.549Z,2
2019-06-10T04:51:03.338Z,2
2019-06-10T04:52:03.604Z,2
2019-06-10T04:53:02.618Z,2
2019-06-10T04:54:03.529Z,2
2019-06-10T04:55:03.019Z,3
2019-06-10T04:56:03.485Z,3
2019-06-10T04:57:02.624Z,3
2019-06-10T04:58:02.921Z,3
2019-06-10T04:59:03.609Z,3
2019-06-10T05:00:14.841Z,2
2019-06-10T05:01:03.631Z,5
2019-06-10T05:02:05.805Z,5
2019-06-10T05:03:03.295Z,5
2019-06-10T05:04:03.616Z,5
2019-06-10T05:05:03.426Z,5
2019-06-10T05:06:03.819Z,1
2019-06-10T05:07:02.520Z,5
2019-06-10T05:08:03.098Z,5
2019-06-10T05:09:04.564Z,5
2019-06-10T05:10:03.645Z,5
2019-06-10T05:11:04.203Z,5
2019-06-10T05:12:03.293Z,2
2019-06-10T05:13:03.521Z,5
2019-06-10T05:14:03.239Z,5
2019-06-10T05:15:04.001Z,5
2019-06-10T05:16:04.154Z,5
2019-06-10T05:17:02.577Z,5
2019-06-10T05:18:03.715Z,2
2019-06-10T05:19:04.282Z,5
2019-06-10T05:20:02.952Z,5
2019-06-10T05:21:03.410Z,5
2019-06-10T05:22:03.549Z,5
2019-06-10T05:23:02.643Z,5
2019-06-10T05:24:03.318Z,2
2019-06-10T05:25:02.960Z,3
2019-06-10T05:26:03.392Z,3
2019-06-10T05:27:02.578Z,3
2019-06-10T05:28:03.254Z,3
2019-06-10T05:29:03.565Z,3
2019-06-10T05:30:02.785Z,4
2019-06-10T05:31:03.377Z,7
2019-06-10T05:32:02.913Z,7
2019-06-10T05:33:03.336Z,7
2019-06-10T05:34:05.748Z,7
2019-06-10T05:35:03.924Z,7
2019-06-10T05:36:03.122Z,3
2019-06-10T05:37:03.095Z,5
2019-06-10T05:38:02.815Z,5
2019-06-10T05:39:03.132Z,5
2019-06-10T05:40:02.580Z,5
2019-06-10T05:41:03.391Z,5
2019-06-10T05:42:03.738Z,2
2019-06-10T05:43:02.885Z,6
2019-06-10T05:44:03.059Z,6
2019-06-10T05:45:03.524Z,6
2019-06-10T05:46:03.526Z,6
2019-06-10T05:47:04.295Z,6
2019-06-10T05:48:03.289Z,2
2019-06-10T05:49:06.151Z,5
2019-06-10T05:50:03.696Z,5
2019-06-10T05:51:07.106Z,5
2019-06-10T05:52:02.335Z,5
2019-06-10T05:53:02.862Z,5
2019-06-10T05:54:02.669Z,1
2019-06-10T05:55:03.251Z,5
2019-06-10T05:56:02.688Z,5
2019-06-10T05:57:02.978Z,5
2019-06-10T05:58:03.058Z,5
2019-06-10T05:59:04.668Z,5
2019-06-10T06:00:15.048Z,1
2019-06-10T06:01:03.202Z,5
2019-06-10T06:02:02.719Z,5
2019-06-10T06:03:03.165Z,5
2019-06-10T06:04:03.656Z,5
2019-06-10T06:05:02.893Z,5
2019-06-10T06:06:03.652Z,4
2019-06-10T06:07:02.712Z,3
2019-06-10T06:08:08.867Z,3
2019-06-10T06:09:02.578Z,3
2019-06-10T06:10:02.832Z,3
2019-06-10T06:11:03.675Z,3
2019-06-10T06:12:02.883Z,3
2019-06-10T06:13:03.447Z,3
2019-06-10T06:14:03.161Z,3
2019-06-10T06:15:02.758Z,3
2019-06-10T06:16:03.835Z,3
2019-06-10T06:17:02.647Z,3
2019-06-10T06:18:13.571Z,5
2019-06-10T06:19:03.629Z,6
2019-06-10T06:20:03.151Z,6
2019-06-10T06:21:31.329Z,6
2019-06-10T06:22:02.613Z,6
2019-06-10T06:23:03.160Z,6
2019-06-10T06:24:04.461Z,3
2019-06-10T06:25:04.259Z,3
2019-06-10T06:26:04.519Z,3
2019-06-10T06:27:02.866Z,3
2019-06-10T06:28:03.335Z,3
2019-06-10T06:29:02.657Z,3
2019-06-10T06:30:16.248Z,3
2019-06-10T06:31:03.830Z,5
2019-06-10T06:32:03.113Z,5
2019-06-10T06:33:03.442Z,5
2019-06-10T06:34:03.549Z,5
2019-06-10T06:35:02.475Z,5
2019-06-10T06:36:04.001Z,2
2019-06-10T06:37:02.539Z,5
2019-06-10T06:38:02.964Z,5
2019-06-10T06:39:02.748Z,5
2019-06-10T06:40:03.184Z,5
2019-06-10T06:41:03.717Z,5
2019-06-10T06:42:02.600Z,3
2019-06-10T06:43:03.059Z,5
2019-06-10T06:44:02.712Z,5
2019-06-10T06:45:03.434Z,5
2019-06-10T06:46:03.085Z,5
2019-06-10T06:47:03.119Z,5
2019-06-10T06:48:03.360Z,3
2019-06-10T06:49:02.473Z,5
2019-06-10T06:50:03.060Z,5
2019-06-10T06:51:08.923Z,5
2019-06-10T06:52:03.388Z,5
2019-06-10T06:53:32.261Z,5
2019-06-10T06:54:03.685Z,2
2019-06-10T06:55:02.857Z,3
2019-06-10T06:56:04.181Z,3
2019-06-10T06:57:03.983Z,3
2019-06-10T06:58:03.792Z,3
2019-06-10T06:59:02.962Z,3
2019-06-10T07:01:00.705Z,2
2019-06-10T07:01:14.197Z,3
2019-06-10T07:02:03.138Z,3
2019-06-10T07:03:03.445Z,3
2019-06-10T07:04:03.095Z,3
2019-06-10T07:05:03.490Z,3
2019-06-10T07:06:03.113Z,2
2019-06-10T07:07:03.086Z,3
2019-06-10T07:08:02.814Z,3
2019-06-10T07:09:08.466Z,3
2019-06-10T07:10:03.727Z,3
2019-06-10T07:11:03.186Z,3
2019-06-10T07:12:02.941Z,2
2019-06-10T07:13:03.179Z,5
2019-06-10T07:14:04.174Z,5
2019-06-10T07:15:04.649Z,5
2019-06-10T07:16:03.485Z,5
2019-06-10T07:17:04.434Z,5
2019-06-10T07:18:02.682Z,1
2019-06-10T07:19:02.990Z,5
2019-06-10T07:20:03.586Z,5
2019-06-10T07:21:03.259Z,5
2019-06-10T07:22:15.612Z,5
2019-06-10T07:23:03.044Z,5
2019-06-10T07:24:03.622Z,3
2019-06-10T07:25:06.911Z,5
2019-06-10T07:26:02.830Z,5
2019-06-10T07:27:03.107Z,5
2019-06-10T07:28:02.393Z,5
2019-06-10T07:29:03.321Z,5
2019-06-10T07:30:14.996Z,2
2019-06-10T07:31:19.539Z,5
2019-06-10T07:32:03.708Z,5
2019-06-10T07:33:03.313Z,5
2019-06-10T07:34:03.019Z,5
2019-06-10T07:35:03.222Z,5
2019-06-10T07:36:03.700Z,2
2019-06-10T07:37:02.921Z,6
2019-06-10T07:38:03.782Z,6
2019-06-10T07:39:03.937Z,6
2019-06-10T07:40:03.426Z,6
2019-06-10T07:41:03.122Z,6
2019-06-10T07:42:03.502Z,2
2019-06-10T07:43:02.688Z,5
2019-06-10T07:44:03.460Z,5
2019-06-10T07:45:02.806Z,5
2019-06-10T07:46:03.873Z,5
2019-06-10T07:47:02.979Z,5
2019-06-10T07:48:03.209Z,2
2019-06-10T07:49:03.730Z,3
2019-06-10T07:50:03.390Z,3
2019-06-10T07:51:03.263Z,3
2019-06-10T07:52:19.903Z,3
2019-06-10T07:53:02.631Z,3
2019-06-10T07:54:03.591Z,3
2019-06-10T07:55:02.893Z,6
2019-06-10T07:56:03.795Z,6
2019-06-10T07:57:02.762Z,6
2019-06-10T07:58:02.895Z,6
2019-06-10T07:59:04.363Z,6
2019-06-10T08:00:03.498Z,2
2019-06-10T08:01:03.084Z,5
2019-06-10T08:02:03.374Z,5
2019-06-10T08:03:02.791Z,5
2019-06-10T08:04:03.469Z,5
2019-06-10T08:05:04.095Z,5
2019-06-10T08:06:03.817Z,2
2019-06-10T08:07:03.746Z,3
2019-06-10T08:08:03.132Z,3
2019-06-10T08:09:02.611Z,3
2019-06-10T08:10:03.286Z,3
2019-06-10T08:11:03.912Z,3
2019-06-10T08:12:06.259Z,1
2019-06-10T08:13:03.290Z,5
2019-06-10T08:14:05.061Z,5
2019-06-10T08:15:03.193Z,5
2019-06-10T08:16:03.299Z,5
2019-06-10T08:17:03.506Z,5
2019-06-10T08:18:04.733Z,3
2019-06-10T08:19:34.908Z,5
2019-06-10T08:20:02.905Z,5
2019-06-10T08:21:03.648Z,5
2019-06-10T08:22:03.356Z,5
2019-06-10T08:23:02.545Z,5
2019-06-10T08:24:03.888Z,2
2019-06-10T08:25:05.363Z,5
2019-06-10T08:26:03.930Z,5
2019-06-10T08:27:03.044Z,5
2019-06-10T08:28:03.412Z,5
2019-06-10T08:29:04.827Z,5
2019-06-10T08:30:27.257Z,2
2019-06-10T08:31:04.172Z,3
2019-06-10T08:32:03.773Z,3
2019-06-10T08:33:03.789Z,3
2019-06-10T08:34:03.527Z,3
2019-06-10T08:35:03.148Z,3
2019-06-10T08:36:04.521Z,3
2019-06-10T08:37:04.888Z,5
2019-06-10T08:38:02.808Z,5
2019-06-10T08:39:03.693Z,5
2019-06-10T08:40:04.170Z,5
2019-06-10T08:41:03.696Z,5
2019-06-10T08:42:03.598Z,2
2019-06-10T08:43:04.689Z,3
2019-06-10T08:44:02.644Z,3
2019-06-10T08:45:03.890Z,3
2019-06-10T08:46:03.043Z,3
2019-06-10T08:47:03.398Z,3
2019-06-10T08:48:03.082Z,2
2019-06-10T08:49:03.566Z,5
2019-06-10T08:50:03.326Z,5
2019-06-10T08:51:04.427Z,5
2019-06-10T08:52:03.871Z,5
2019-06-10T08:53:18.101Z,5
2019-06-10T08:54:02.779Z,2
2019-06-10T08:55:03.832Z,5
2019-06-10T08:56:03.399Z,5
2019-06-10T08:57:07.025Z,5
2019-06-10T08:58:03.226Z,5
2019-06-10T08:59:03.665Z,5
2019-06-10T09:00:18.620Z,3
2019-06-10T09:01:02.694Z,5
2019-06-10T09:02:03.408Z,5
2019-06-10T09:03:04.588Z,5
2019-06-10T09:04:03.644Z,5
2019-06-10T09:05:04.117Z,5
2019-06-10T09:06:03.661Z,3
2019-06-10T09:07:04.696Z,5
2019-06-10T09:08:03.620Z,5
2019-06-10T09:09:03.570Z,5
2019-06-10T09:10:03.377Z,5
2019-06-10T09:11:02.830Z,5
2019-06-10T09:12:04.702Z,6
2019-06-10T09:13:03.138Z,3
2019-06-10T09:14:02.927Z,3
2019-06-10T09:15:04.136Z,3
2019-06-10T09:16:19.077Z,3
2019-06-10T09:17:03.843Z,3
2019-06-10T09:18:02.988Z,2
2019-06-10T09:19:02.636Z,5
2019-06-10T09:20:03.277Z,5
2019-06-10T09:21:02.691Z,5
2019-06-10T09:22:04.195Z,5
2019-06-10T09:23:25.342Z,5
2019-06-10T09:24:04.363Z,2
2019-06-10T09:25:03.280Z,5
2019-06-10T09:26:04.119Z,5
2019-06-10T09:27:03.329Z,5
2019-06-10T09:28:02.748Z,5
2019-06-10T09:29:03.331Z,5
2019-06-10T09:30:03.360Z,2
2019-06-10T09:31:05.619Z,2
2019-06-10T09:32:02.499Z,2
2019-06-10T09:33:05.130Z,2
2019-06-10T09:34:04.403Z,2
2019-06-10T09:35:04.208Z,2
2019-06-10T09:36:04.147Z,2
2019-06-10T09:37:04.383Z,3
2019-06-10T09:38:04.104Z,3
2019-06-10T09:39:04.412Z,3
2019-06-10T09:40:03.842Z,3
2019-06-10T09:41:06.639Z,3
2019-06-10T09:42:06.964Z,2
2019-06-10T09:43:02.827Z,5
2019-06-10T09:44:03.761Z,5
2019-06-10T09:45:02.962Z,5
2019-06-10T09:46:04.126Z,5
2019-06-10T09:47:03.887Z,5
2019-06-10T09:48:04.351Z,3
2019-06-10T09:49:02.479Z,5
2019-06-10T09:50:03.637Z,5
2019-06-10T09:51:02.945Z,5
2019-06-10T09:52:03.898Z,5
2019-06-10T09:53:04.400Z,5
2019-06-10T09:54:07.163Z,3
2019-06-10T09:55:03.512Z,3
2019-06-10T09:56:04.746Z,3
2019-06-10T09:57:03.516Z,3
2019-06-10T09:58:03.676Z,3
2019-06-10T09:59:04.172Z,3
2019-06-10T10:00:04.736Z,3
2019-06-10T10:01:04.819Z,6
2019-06-10T10:02:07.416Z,6
2019-06-10T10:03:03.810Z,6
2019-06-10T10:04:02.552Z,6
2019-06-10T10:05:02.983Z,6
2019-06-10T10:06:16.026Z,3
2019-06-10T10:07:03.469Z,3
2019-06-10T10:08:02.433Z,3
2019-06-10T10:09:04.408Z,3
2019-06-10T10:10:05.715Z,3
2019-06-10T10:11:02.189Z,3
2019-06-10T10:12:03.344Z,5
2019-06-10T10:13:03.080Z,3
2019-06-10T10:14:12.382Z,3
2019-06-10T10:15:30.809Z,3
2019-06-10T10:16:03.054Z,3
2019-06-10T10:17:05.308Z,3
2019-06-10T10:18:02.804Z,1
2019-06-10T10:19:05.842Z,4
2019-06-10T10:20:03.704Z,4
2019-06-10T10:21:04.319Z,4
2019-06-10T10:22:03.379Z,4
2019-06-10T10:23:03.038Z,4
2019-06-10T10:24:14.786Z,2
2019-06-10T10:25:03.372Z,5
2019-06-10T10:26:03.903Z,5
2019-06-10T10:27:09.268Z,5
2019-06-10T10:28:03.626Z,5
2019-06-10T10:29:03.131Z,5
2019-06-10T10:30:04.250Z,5
2019-06-10T10:31:04.979Z,6
2019-06-10T10:32:02.966Z,6
2019-06-10T10:33:04.116Z,6
2019-06-10T10:34:03.063Z,6
2019-06-10T10:35:04.256Z,6
2019-06-10T10:36:03.342Z,2
2019-06-10T10:37:03.268Z,4
2019-06-10T10:38:04.216Z,4
2019-06-10T10:39:02.921Z,4
2019-06-10T10:40:04.124Z,4
2019-06-10T10:41:05.250Z,4
2019-06-10T10:42:04.231Z,1
2019-06-10T10:43:32.634Z,2
2019-06-10T10:44:03.538Z,2
2019-06-10T10:45:03.091Z,2
2019-06-10T10:46:06.367Z,2
2019-06-10T10:47:04.087Z,2
2019-06-10T10:48:02.837Z,2
2019-06-10T10:49:03.033Z,3
2019-06-10T10:50:03.255Z,3
2019-06-10T10:51:04.187Z,3
2019-06-10T10:52:03.003Z,3
2019-06-10T10:53:02.108Z,3
2019-06-10T10:54:35.940Z,2
2019-06-10T10:55:07.310Z,4
2019-06-10T10:56:02.710Z,4
2019-06-10T10:57:03.408Z,4
2019-06-10T10:58:03.566Z,4
2019-06-10T10:59:02.500Z,4
2019-06-10T11:00:03.575Z,2
2019-06-10T11:01:05.134Z,5
2019-06-10T11:02:02.736Z,5
2019-06-10T11:03:03.531Z,5
2019-06-10T11:04:04.125Z,5
2019-06-10T11:05:01.959Z,5
2019-06-10T11:06:02.301Z,2
2019-06-10T11:07:02.293Z,5
2019-06-10T11:08:04.737Z,5
2019-06-10T11:09:01.672Z,5
2019-06-10T11:10:04.797Z,5
2019-06-10T11:11:06.180Z,5
2019-06-10T11:12:03.771Z,5
2019-06-10T11:13:02.651Z,4
2019-06-10T11:14:03.951Z,4
2019-06-10T11:15:05.451Z,4
2019-06-10T11:16:03.928Z,4
2019-06-10T11:17:03.298Z,4
2019-06-10T11:18:04.282Z,3
2019-06-10T11:19:02.911Z,3
2019-06-10T11:20:04.151Z,3
2019-06-10T11:21:05.589Z,3
2019-06-10T11:22:03.373Z,3
2019-06-10T11:23:03.357Z,3
2019-06-10T11:24:05.189Z,2
2019-06-10T11:25:02.123Z,4
2019-06-10T11:26:02.342Z,4
2019-06-10T11:27:03.573Z,4
2019-06-10T11:28:04.567Z,4
2019-06-10T11:29:03.412Z,4
2019-06-10T11:30:02.765Z,3
2019-06-10T11:31:04.294Z,4
2019-06-10T11:32:03.432Z,4
2019-06-10T11:33:03.770Z,4
2019-06-10T11:34:03.551Z,4
2019-06-10T11:35:04.144Z,4
2019-06-10T11:36:03.268Z,5
2019-06-10T11:37:02.684Z,4
2019-06-10T11:38:03.717Z,4
2019-06-10T11:39:03.194Z,4
2019-06-10T11:40:03.232Z,4
2019-06-10T11:41:02.286Z,4
2019-06-10T11:42:04.233Z,3
2019-06-10T11:43:01.750Z,4
2019-06-10T11:44:01.926Z,4
2019-06-10T11:45:03.267Z,4
2019-06-10T11:46:08.286Z,4
2019-06-10T11:47:03.633Z,4
2019-06-10T11:48:02.767Z,3
2019-06-10T11:49:04.383Z,6
2019-06-10T11:50:03.846Z,6
2019-06-10T11:51:05.079Z,6
2019-06-10T11:52:03.636Z,6
2019-06-10T11:53:04.701Z,6
2019-06-10T11:54:03.824Z,5
2019-06-10T11:55:19.328Z,4
2019-06-10T11:56:02.818Z,4
2019-06-10T11:57:01.985Z,4
2019-06-10T11:58:02.153Z,4
2019-06-10T11:59:13.057Z,4
2019-06-10T12:00:17.415Z,3
2019-06-10T12:01:04.471Z,4
2019-06-10T12:02:06.438Z,4
2019-06-10T12:03:03.889Z,4
2019-06-10T12:04:04.565Z,4
2019-06-10T12:05:04.410Z,4
2019-06-10T12:06:06.028Z,3
2019-06-10T12:07:02.698Z,6
2019-06-10T12:08:03.188Z,6
2019-06-10T12:09:03.348Z,6
2019-06-10T12:10:02.517Z,6
2019-06-10T12:11:02.885Z,6
2019-06-10T12:12:02.696Z,3
2019-06-10T12:13:07.753Z,4
2019-06-10T12:14:05.058Z,4
2019-06-10T12:15:02.631Z,4
2019-06-10T12:17:24.777Z,4
2019-06-10T12:18:09.702Z,4
2019-06-10T12:19:03.972Z,4
2019-06-10T12:20:03.801Z,4
2019-06-10T12:21:04.360Z,4
2019-06-10T12:22:07.979Z,4
2019-06-10T12:23:04.944Z,4
2019-06-10T12:24:03.191Z,4
2019-06-10T12:25:38.789Z,6
2019-06-10T12:26:05.536Z,6
2019-06-10T12:27:05.531Z,6
2019-06-10T12:28:08.019Z,6
2019-06-10T12:29:06.108Z,6
2019-06-10T12:30:05.512Z,3
2019-06-10T12:31:07.591Z,6
2019-06-10T12:32:07.978Z,6
2019-06-10T12:33:06.035Z,6
2019-06-10T12:34:06.124Z,6
2019-06-10T12:35:05.979Z,6
2019-06-10T12:36:07.651Z,5
2019-06-10T12:37:15.779Z,3
2019-06-10T12:38:06.562Z,3
2019-06-10T12:39:11.946Z,3
2019-06-10T12:40:06.146Z,3
2019-06-10T12:41:10.407Z,3
2019-06-10T12:42:06.916Z,4
2019-06-10T12:43:07.679Z,6
2019-06-10T12:44:04.820Z,6
2019-06-10T12:45:08.860Z,6
2019-06-10T12:46:03.736Z,6
2019-06-10T12:47:08.499Z,6
2019-06-10T12:48:07.122Z,5
2019-06-10T12:49:08.889Z,6
2019-06-10T12:50:05.733Z,6
2019-06-10T12:51:09.785Z,6
2019-06-10T12:52:07.826Z,6
2019-06-10T12:53:07.467Z,6
2019-06-10T12:54:06.612Z,3
2019-06-10T12:55:04.134Z,4
2019-06-10T12:56:12.221Z,4
2019-06-10T12:57:07.089Z,4
2019-06-10T12:58:06.161Z,4
2019-06-10T12:59:10.275Z,4
2019-06-10T13:00:25.783Z,6
2019-06-10T13:01:07.944Z,4
2019-06-10T13:02:23.222Z,4
2019-06-10T13:03:05.397Z,4
2019-06-10T13:04:09.440Z,4
2019-06-10T13:05:07.436Z,4
2019-06-10T13:06:09.492Z,5
2019-06-10T13:07:08.854Z,7
2019-06-10T13:08:05.988Z,7
2019-06-10T13:09:06.302Z,7
2019-06-10T13:10:04.180Z,7
2019-06-10T13:11:02.416Z,7
2019-06-10T13:12:02.457Z,3
2019-06-10T13:13:09.147Z,6
2019-06-10T13:14:06.934Z,6
2019-06-10T13:15:08.855Z,6
2019-06-10T13:16:10.498Z,6
2019-06-10T13:17:05.716Z,6
2019-06-10T13:18:11.874Z,5
2019-06-10T13:19:07.836Z,6
2019-06-10T13:20:08.200Z,6
2019-06-10T13:21:14.785Z,6
2019-06-10T13:22:07.611Z,6
2019-06-10T13:23:25.321Z,6
2019-06-10T13:24:05.494Z,3
2019-06-10T13:25:03.021Z,7
2019-06-10T13:26:15.787Z,7
2019-06-10T13:27:07.018Z,7
2019-06-10T13:28:08.259Z,7
2019-06-10T13:29:10.019Z,7
2019-06-10T13:30:04.188Z,5
2019-06-10T13:31:09.866Z,7
2019-06-10T13:32:06.624Z,7
2019-06-10T13:33:14.415Z,7
2019-06-10T13:34:13.767Z,7
2019-06-10T13:35:06.329Z,7
2019-06-10T13:36:08.303Z,5
2019-06-10T13:37:08.176Z,9
2019-06-10T13:38:07.267Z,9
2019-06-10T13:39:09.817Z,9
2019-06-10T13:40:10.144Z,9
2019-06-10T13:41:05.539Z,9
2019-06-10T13:42:09.636Z,6
2019-06-10T13:43:03.837Z,8
2019-06-10T13:44:02.384Z,8
2019-06-10T13:45:08.202Z,8
2019-06-10T13:46:08.694Z,8
2019-06-10T13:47:11.525Z,8
2019-06-10T13:48:11.475Z,7
2019-06-10T13:49:10.366Z,8
2019-06-10T13:50:11.181Z,8
2019-06-10T13:51:13.087Z,8
2019-06-10T13:52:16.262Z,8
2019-06-10T13:53:07.900Z,8
2019-06-10T13:54:08.754Z,7
2019-06-10T13:55:09.126Z,9
2019-06-10T13:57:08.398Z,9
2019-06-10T13:58:09.596Z,9
2019-06-10T13:59:07.456Z,9
2019-06-10T14:00:10.008Z,5
2019-06-10T14:01:12.025Z,8
2019-06-10T14:02:08.557Z,8
2019-06-10T14:03:10.297Z,8
2019-06-10T14:04:21.228Z,8
2019-06-10T14:05:12.951Z,8
2019-06-10T14:06:40.550Z,7
2019-06-10T14:07:10.399Z,7
2019-06-10T14:08:09.354Z,7
2019-06-10T14:09:11.572Z,7
2019-06-10T14:10:12.937Z,7
2019-06-10T14:11:07.813Z,7
2019-06-10T14:12:02.328Z,8
2019-06-10T14:13:07.959Z,8
2019-06-10T14:14:03.943Z,8
2019-06-10T14:15:08.108Z,8
2019-06-10T14:16:03.403Z,8
2019-06-10T14:17:05.480Z,8
2019-06-10T14:18:07.418Z,9
2019-06-10T14:19:07.561Z,9
2019-06-10T14:20:02.091Z,9
2019-06-10T14:21:11.625Z,9
2019-06-10T14:22:08.362Z,9
2019-06-10T14:23:04.149Z,9
2019-06-10T14:24:02.433Z,8
2019-06-10T14:25:06.935Z,8
2019-06-10T14:26:07.589Z,8
2019-06-10T14:27:08.741Z,8
2019-06-10T14:28:08.983Z,8
2019-06-10T14:29:05.713Z,8
2019-06-10T14:30:06.244Z,7
2019-06-10T14:31:35.574Z,7
2019-06-10T14:32:05.693Z,7
2019-06-10T14:33:05.666Z,7
2019-06-10T14:34:07.451Z,7
2019-06-10T14:35:01.966Z,7
2019-06-10T14:36:07.180Z,7
2019-06-10T14:37:02.117Z,7
2019-06-10T14:38:06.400Z,7
2019-06-10T14:39:03.752Z,7
2019-06-10T14:40:07.056Z,7
2019-06-10T14:41:06.500Z,7
2019-06-10T14:42:06.971Z,9
2019-06-10T14:43:02.416Z,9
2019-06-10T14:44:02.598Z,9
2019-06-10T14:45:01.894Z,9
2019-06-10T14:46:01.993Z,9
2019-06-10T14:47:04.469Z,9
2019-06-10T14:48:04.881Z,7
2019-06-10T14:49:02.654Z,7
2019-06-10T14:50:04.921Z,7